Florence, Wisconsin
Current Conditions -  °F | °C
As of 7:31 PM on Wednesday 26 Nov 2014 (Local Time) from KIMT Reporting Station
Overcast Overcast  
Wind Chill: -11°   Ceiling: 1200
Heat Index: -5°   Visibility: 10mi
Dew Point: -8°   Wind: 9mph
Humidity: 81%   Direction: 320°NW
Pressure: 30.12"   Gusts: NA
Location:  45.92°N, 88.25°W
Report Text: KIMT 270131Z AUTO 32008KT 10SM OVC012 M05/M08 A3012 RMK AO2 T10501078
Loading
Personal Weather Stations






























Interactive Weather Map New forecast layout! Learn more

10-Day Weather Forecast

Advertisements
Track Severe Weather on mobile